Time;durP1;ratioP1;P1;durP2;ratioP2;P2;SDS_P1;SDS_P2;PMS_P1;PMS_P2;Temp;Humidity;BMP_temperature;BMP_pressure;BME280_temperature;BME280_humidity;BME280_pressure;Samples;Min_cycle;Max_cycle;Signal;HPM_P1;HPM_P2
2022/03/24 00:02:11;;;;;;;4.50;3.57;;;;;;;6.90;52.94;97213.72;5035339;28;20289;-77
2022/03/24 00:04:38;;;;;;;5.40;3.27;;;;;;;6.93;53.11;97205.28;5036901;28;20209;-77
2022/03/24 00:07:06;;;;;;;8.50;4.70;;;;;;;6.93;53.22;97207.16;5040062;28;20210;-77
2022/03/24 00:09:34;;;;;;;5.63;4.03;;;;;;;6.97;52.92;97205.75;5038725;28;20245;-77
2022/03/24 00:12:01;;;;;;;5.17;3.67;;;;;;;6.92;52.84;97208.16;5043522;28;20222;-77
2022/03/24 00:14:29;;;;;;;4.93;3.60;;;;;;;6.84;52.73;97201.03;5055674;28;20234;-77
2022/03/24 00:16:56;;;;;;;6.07;3.27;;;;;;;6.83;52.70;97205.56;5045260;28;20228;-77
2022/03/24 00:19:23;;;;;;;5.67;3.90;;;;;;;6.74;53.96;97205.84;5039022;28;20211;-77
2022/03/24 00:21:51;;;;;;;5.93;3.60;;;;;;;6.73;54.36;97205.00;5040311;28;20229;-77
2022/03/24 00:24:19;;;;;;;5.53;4.20;;;;;;;6.74;54.49;97205.84;5053089;28;20317;-77
2022/03/24 00:26:46;;;;;;;8.03;3.73;;;;;;;6.73;54.11;97198.81;5048604;28;20210;-77
2022/03/24 00:29:13;;;;;;;5.83;4.17;;;;;;;6.72;53.82;97199.84;5035973;28;20260;-77
2022/03/24 00:31:42;;;;;;;4.80;3.47;;;;;;;6.56;54.83;97198.16;5041370;28;20221;-77
2022/03/24 00:34:10;;;;;;;4.87;3.70;;;;;;;6.41;55.06;97194.66;5051395;28;20238;-77
2022/03/24 00:36:38;;;;;;;5.73;3.80;;;;;;;6.33;55.81;97200.94;5040783;28;20230;-77
2022/03/24 00:39:06;;;;;;;5.93;3.77;;;;;;;6.24;56.28;97190.47;5040233;28;20310;-77
2022/03/24 00:41:35;;;;;;;4.57;3.67;;;;;;;6.29;56.89;97190.75;5035531;28;20230;-77
2022/03/24 00:44:02;;;;;;;4.97;3.70;;;;;;;6.32;56.42;97191.22;5042041;28;20210;-77
2022/03/24 00:46:31;;;;;;;4.43;3.50;;;;;;;6.39;55.96;97180.56;5035970;28;20199;-77
2022/03/24 00:49:02;;;;;;;4.23;3.10;;;;;;;6.42;55.77;97181.06;5033812;28;20261;-77
2022/03/24 00:51:29;;;;;;;5.23;3.60;;;;;;;6.25;56.31;97178.72;5043672;28;20300;-77
2022/03/24 00:53:55;;;;;;;4.80;3.60;;;;;;;6.22;56.92;97185.28;5041045;28;20199;-77
2022/03/24 00:56:23;;;;;;;4.77;3.70;;;;;;;6.23;56.92;97175.38;5035390;28;20374;-76
2022/03/24 00:58:50;;;;;;;5.90;3.23;;;;;;;6.17;56.75;97170.75;5060518;28;20205;-77
2022/03/24 01:01:19;;;;;;;3.60;2.67;;;;;;;6.17;55.71;97176.13;5042356;28;20214;-77
2022/03/24 01:03:46;;;;;;;7.20;3.10;;;;;;;6.14;56.14;97173.78;5042487;28;20214;-77
2022/03/24 01:06:16;;;;;;;7.83;2.90;;;;;;;6.19;56.18;97174.94;5037053;28;20201;-77
2022/03/24 01:08:44;;;;;;;5.77;3.10;;;;;;;6.23;56.33;97162.81;5035185;28;20206;-77
2022/03/24 01:11:13;;;;;;;4.40;3.30;;;;;;;6.24;56.74;97171.69;5047284;28;20202;-77
2022/03/24 01:13:41;;;;;;;5.23;3.07;;;;;;;6.22;56.07;97176.38;5056166;28;20217;-77
2022/03/24 01:16:09;;;;;;;8.03;3.70;;;;;;;6.10;57.36;97177.88;5046044;28;20230;-77
2022/03/24 01:18:37;;;;;;;4.80;3.60;;;;;;;6.06;57.40;97172.84;5044202;28;20203;-77
2022/03/24 01:21:04;;;;;;;5.37;3.70;;;;;;;5.96;57.64;97174.13;5033079;28;20221;-77
2022/03/24 01:23:33;;;;;;;5.13;3.00;;;;;;;5.93;56.49;97169.97;5050024;28;20235;-76
2022/03/24 01:26:00;;;;;;;4.30;2.90;;;;;;;5.96;56.61;97166.91;5030171;28;20199;-77
2022/03/24 01:28:29;;;;;;;3.47;2.70;;;;;;;6.02;56.36;97162.69;5035102;28;20202;-77
2022/03/24 01:30:56;;;;;;;4.90;3.63;;;;;;;5.95;57.64;97159.91;5034897;28;20203;-77
2022/03/24 01:33:24;;;;;;;4.50;3.23;;;;;;;5.95;57.89;97162.59;5040233;28;20333;-77
2022/03/24 01:35:52;;;;;;;3.67;2.63;;;;;;;6.00;57.68;97165.53;5050475;28;20408;-77
2022/03/24 01:38:22;;;;;;;3.60;2.50;;;;;;;5.96;55.74;97164.22;5034434;28;20202;-77
2022/03/24 01:40:51;;;;;;;5.33;3.80;;;;;;;5.81;58.38;97165.19;5037513;28;20199;-77
2022/03/24 01:43:19;;;;;;;4.73;3.47;;;;;;;5.70;59.19;97163.75;5040158;28;20214;-77
2022/03/24 01:45:47;;;;;;;4.70;3.43;;;;;;;5.62;59.34;97156.63;5036308;28;20211;-77
2022/03/24 01:48:15;;;;;;;4.00;2.80;;;;;;;5.65;58.35;97158.13;5048687;28;20213;-77
2022/03/24 01:50:44;;;;;;;4.13;3.30;;;;;;;5.62;58.54;97163.81;5030184;28;20211;-77
2022/03/24 01:53:12;;;;;;;4.30;3.30;;;;;;;5.61;59.45;97154.13;5044767;28;20202;-77
2022/03/24 01:55:39;;;;;;;7.33;3.27;;;;;;;5.61;59.38;97160.31;5039483;28;20213;-77
2022/03/24 01:58:09;;;;;;;5.93;3.30;;;;;;;5.61;59.10;97159.50;5036258;28;20214;-77
2022/03/24 02:00:36;;;;;;;4.87;2.50;;;;;;;5.58;57.95;97154.50;5053289;28;20210;-77
2022/03/24 02:03:05;;;;;;;4.13;2.90;;;;;;;5.56;57.70;97153.81;5037352;28;20233;-77
2022/03/24 02:05:32;;;;;;;5.90;3.57;;;;;;;5.50;58.67;97149.19;5040633;28;20214;-77
2022/03/24 02:08:03;;;;;;;4.33;3.40;;;;;;;5.41;60.31;97160.97;5040611;28;20224;-77
2022/03/24 02:10:32;;;;;;;5.33;2.80;;;;;;;5.35;59.67;97153.66;5037023;28;20218;-77
2022/03/24 02:12:59;;;;;;;3.27;2.70;;;;;;;5.33;59.19;97157.34;5055226;28;20201;-77
2022/03/24 02:15:29;;;;;;;4.20;2.90;;;;;;;5.37;60.27;97160.50;5052684;28;20222;-77
2022/03/24 02:17:56;;;;;;;4.77;3.53;;;;;;;5.43;60.41;97158.97;5039332;28;20206;-76
2022/03/24 02:20:25;;;;;;;4.13;2.83;;;;;;;5.38;60.43;97164.84;5054512;28;20206;-77
2022/03/24 02:22:53;;;;;;;4.07;2.80;;;;;;;5.38;60.29;97143.41;5037592;28;20234;-77
2022/03/24 02:25:22;;;;;;;4.47;2.53;;;;;;;5.44;59.96;97157.97;5055151;28;20256;-77
2022/03/24 02:27:54;;;;;;;4.77;2.93;;;;;;;5.40;60.44;97160.16;5044503;28;20202;-77
2022/03/24 02:30:24;;;;;;;3.63;2.83;;;;;;;5.36;61.01;97161.50;5054779;28;20237;-77
2022/03/24 02:32:53;;;;;;;5.00;2.67;;;;;;;5.38;60.84;97158.66;5046825;28;20198;-77
2022/03/24 02:35:20;;;;;;;5.40;3.00;;;;;;;5.31;60.88;97163.88;5041778;28;20234;-77
2022/03/24 02:37:47;;;;;;;3.07;2.53;;;;;;;5.15;60.01;97172.84;5032178;28;20233;-77
2022/03/24 02:40:16;;;;;;;3.93;2.83;;;;;;;5.09;61.76;97162.03;5032898;28;20210;-77
2022/03/24 02:42:44;;;;;;;4.63;2.87;;;;;;;5.03;62.92;97163.53;5036621;28;20319;-77
2022/03/24 02:45:11;;;;;;;3.43;2.70;;;;;;;5.06;62.50;97165.88;5051878;28;20206;-77
2022/03/24 02:47:38;;;;;;;4.43;2.70;;;;;;;5.03;61.96;97166.22;5043215;28;20210;-77
2022/03/24 02:50:09;;;;;;;4.07;2.80;;;;;;;4.92;61.64;97169.31;5043042;28;20648;-77
2022/03/24 02:52:36;;;;;;;3.43;2.63;;;;;;;4.91;62.33;97175.66;5052110;28;20491;-77
2022/03/24 02:55:03;;;;;;;5.13;2.70;;;;;;;4.97;62.26;97171.44;5048325;28;20214;-77
2022/03/24 02:57:33;;;;;;;5.27;2.60;;;;;;;5.00;60.56;97166.59;5066100;28;20229;-77
2022/03/24 03:00:01;;;;;;;3.47;2.90;;;;;;;5.00;61.69;97171.09;5039329;28;20202;-77
2022/03/24 03:02:29;;;;;;;5.13;2.40;;;;;;;4.99;61.70;97172.13;5046725;28;20210;-77
2022/03/24 03:04:56;;;;;;;5.60;2.80;;;;;;;4.94;61.44;97172.63;5045549;28;20210;-76
2022/03/24 03:07:23;;;;;;;3.50;2.40;;;;;;;4.90;60.80;97169.47;5046200;28;20241;-77
2022/03/24 03:09:50;;;;;;;3.60;2.40;;;;;;;4.92;60.76;97175.50;5040831;28;20202;-77
2022/03/24 03:12:18;;;;;;;4.83;2.70;;;;;;;4.92;60.11;97178.19;5045149;28;20217;-77
2022/03/24 03:14:47;;;;;;;3.50;2.57;;;;;;;4.76;59.57;97177.41;5038532;28;20209;-77
2022/03/24 03:17:16;;;;;;;3.30;2.00;;;;;;;4.71;58.65;97177.91;5041428;28;20298;-77
2022/03/24 03:19:45;;;;;;;4.50;3.03;;;;;;;4.74;60.51;97176.75;5041357;28;20268;-77
2022/03/24 03:22:13;;;;;;;4.40;2.90;;;;;;;4.71;61.33;97182.44;5042835;28;20256;-77
2022/03/24 03:24:41;;;;;;;7.93;2.50;;;;;;;4.65;61.85;97189.31;5041179;28;20218;-77
2022/03/24 03:27:08;;;;;;;4.37;2.87;;;;;;;4.63;61.27;97185.97;5042060;28;20289;-77
2022/03/24 03:29:35;;;;;;;5.30;2.70;;;;;;;4.64;61.16;97186.81;5035896;28;20210;-77
2022/03/24 03:32:05;;;;;;;2.73;2.37;;;;;;;4.60;61.70;97188.16;5064665;28;20256;-77
2022/03/24 03:34:32;;;;;;;3.83;2.50;;;;;;;4.60;61.82;97185.47;5038798;28;20226;-77
2022/03/24 03:37:00;;;;;;;4.63;2.67;;;;;;;4.64;61.02;97189.50;5045039;28;20218;-77
2022/03/24 03:39:28;;;;;;;3.90;2.30;;;;;;;4.68;60.08;97186.28;5040550;28;20210;-77
2022/03/24 03:41:57;;;;;;;3.50;2.30;;;;;;;4.66;60.34;97184.81;5037805;28;20214;-77
2022/03/24 03:44:24;;;;;;;4.37;2.47;;;;;;;4.66;61.21;97190.16;5031304;28;20207;-77
2022/03/24 03:46:52;;;;;;;6.03;2.90;;;;;;;4.53;62.17;97193.34;5041178;28;20303;-77
2022/03/24 03:49:21;;;;;;;3.30;2.37;;;;;;;4.47;62.51;97200.25;5040379;28;20206;-77
2022/03/24 03:51:49;;;;;;;4.33;2.50;;;;;;;4.49;62.19;97186.69;5051486;28;20202;-77
2022/03/24 03:54:16;;;;;;;3.13;2.40;;;;;;;4.51;61.21;97180.16;5035993;28;20209;-77
2022/03/24 03:56:43;;;;;;;3.50;2.40;;;;;;;4.61;60.70;97184.47;5062446;28;20222;-77
2022/03/24 03:59:10;;;;;;;2.80;2.10;;;;;;;4.69;60.02;97179.94;5052688;28;20217;-77
2022/03/24 04:01:37;;;;;;;7.03;2.17;;;;;;;4.67;59.51;97178.47;5041857;28;20203;-77
2022/03/24 04:04:07;;;;;;;3.50;2.33;;;;;;;4.64;59.46;97181.47;5040580;28;20217;-77
2022/03/24 04:06:35;;;;;;;6.10;2.70;;;;;;;4.49;60.28;97174.16;5051098;28;20242;-77
2022/03/24 04:09:02;;;;;;;3.83;2.60;;;;;;;4.44;60.55;97175.66;5034467;28;20207;-76
2022/03/24 04:11:30;;;;;;;3.30;2.57;;;;;;;4.41;60.99;97168.84;5031677;28;20215;-77
2022/03/24 04:13:57;;;;;;;3.77;2.37;;;;;;;4.44;61.44;97165.81;5046723;28;20194;-77
2022/03/24 04:16:24;;;;;;;3.33;2.40;;;;;;;4.44;60.84;97171.16;5041907;28;20219;-77
2022/03/24 04:18:51;;;;;;;3.47;2.23;;;;;;;4.43;59.75;97180.19;5043640;28;20205;-77
2022/03/24 04:21:19;;;;;;;3.67;2.10;;;;;;;4.46;59.59;97166.47;5028603;28;20322;-77
2022/03/24 04:23:49;;;;;;;3.53;2.13;;;;;;;4.54;59.58;97166.44;5033739;28;20221;-77
2022/03/24 04:26:16;;;;;;;4.17;2.70;;;;;;;4.52;60.10;97168.44;5046739;28;20218;-77
2022/03/24 04:28:44;;;;;;;3.37;2.27;;;;;;;4.51;60.26;97176.66;5045020;28;20214;-77
2022/03/24 04:31:12;;;;;;;2.90;2.13;;;;;;;4.47;60.26;97160.13;5044419;28;20248;-77
2022/03/24 04:33:39;;;;;;;2.40;2.20;;;;;;;4.49;60.23;97162.63;5036157;28;20246;-77
2022/03/24 04:36:08;;;;;;;3.13;2.13;;;;;;;4.51;60.10;97164.09;5037754;28;20400;-77
2022/03/24 04:38:36;;;;;;;5.60;2.10;;;;;;;4.52;60.12;97163.09;5035328;28;20218;-77
2022/03/24 04:41:06;;;;;;;5.17;2.20;;;;;;;4.50;60.39;97159.78;5052021;28;20214;-77
2022/03/24 04:43:34;;;;;;;3.37;2.63;;;;;;;4.47;60.44;97170.00;5049513;28;20214;-77
2022/03/24 04:46:01;;;;;;;4.93;3.00;;;;;;;4.34;60.58;97167.84;5046506;28;20198;-77
2022/03/24 04:48:28;;;;;;;4.67;2.53;;;;;;;4.31;61.58;97162.84;5037309;28;20328;-77
2022/03/24 04:50:55;;;;;;;3.60;2.77;;;;;;;4.29;61.32;97166.69;5049110;28;20260;-77
2022/03/24 04:53:23;;;;;;;3.33;2.10;;;;;;;4.25;62.12;97168.06;5053865;28;20238;-77
2022/03/24 04:55:50;;;;;;;3.67;2.50;;;;;;;4.24;62.23;97166.38;5033776;28;20201;-76
2022/03/24 04:58:19;;;;;;;6.17;2.60;;;;;;;4.32;62.19;97171.72;5039493;28;20246;-77
2022/03/24 05:00:48;;;;;;;5.27;2.73;;;;;;;4.33;61.65;97174.22;5043522;28;20209;-76
2022/03/24 05:03:15;;;;;;;4.90;2.80;;;;;;;4.30;62.01;97177.22;5045566;28;20293;-76
2022/03/24 05:05:42;;;;;;;3.37;2.50;;;;;;;4.24;62.37;97175.25;5037696;28;20206;-77
2022/03/24 05:08:10;;;;;;;3.43;2.37;;;;;;;4.12;62.35;97177.44;5041943;28;20206;-77
2022/03/24 05:10:37;;;;;;;3.57;2.53;;;;;;;4.17;62.37;97171.56;5031889;28;20207;-77
2022/03/24 05:13:04;;;;;;;4.20;2.73;;;;;;;4.18;62.79;97179.41;5042701;28;20214;-77
2022/03/24 05:15:32;;;;;;;4.60;2.87;;;;;;;4.13;62.94;97183.59;5036379;28;20213;-76
2022/03/24 05:17:59;;;;;;;5.20;2.67;;;;;;;4.05;63.31;97188.97;5041519;28;20311;-77
2022/03/24 05:20:26;;;;;;;4.67;2.93;;;;;;;3.89;63.98;97191.66;5045637;28;20228;-76
2022/03/24 05:22:53;;;;;;;5.33;3.23;;;;;;;3.90;64.33;97193.31;5029653;28;20238;-76
2022/03/24 05:25:21;;;;;;;5.93;3.20;;;;;;;3.84;64.35;97192.16;5031030;28;20206;-76
2022/03/24 05:27:48;;;;;;;5.40;3.57;;;;;;;3.86;64.78;97202.66;5061339;28;20215;-77
2022/03/24 05:30:15;;;;;;;6.83;3.77;;;;;;;3.85;65.46;97195.66;5047848;28;20217;-76
2022/03/24 05:32:44;;;;;;;9.47;5.00;;;;;;;3.84;65.25;97185.97;5029077;28;20214;-76
2022/03/24 05:35:12;;;;;;;3.97;2.67;;;;;;;3.71;65.75;97195.34;5043930;28;20235;-76
2022/03/24 05:37:39;;;;;;;5.40;3.53;;;;;;;3.68;66.74;97195.66;5033442;28;20229;-76
2022/03/24 05:40:09;;;;;;;4.37;2.97;;;;;;;3.69;66.60;97196.50;5039233;28;20210;-77
2022/03/24 05:42:36;;;;;;;8.03;4.33;;;;;;;3.74;66.16;97192.31;5058637;28;20207;-76
2022/03/24 05:45:04;;;;;;;4.70;3.70;;;;;;;3.80;66.52;97197.00;5055685;28;20198;-76
2022/03/24 05:47:31;;;;;;;9.13;4.10;;;;;;;3.84;66.52;97196.66;5054468;28;20210;-76
2022/03/24 05:50:02;;;;;;;7.83;3.47;;;;;;;3.88;65.97;97203.34;5040694;28;20490;-76
2022/03/24 05:53:04;;;;;;;5.87;3.20;;;;;;;3.92;65.36;97204.66;5034845;28;20277;-77
2022/03/24 05:55:34;;;;;;;5.60;3.07;;;;;;;3.83;65.74;97197.69;5035308;28;20233;-77
2022/03/24 05:58:01;;;;;;;9.93;6.00;;;;;;;3.88;66.01;97195.31;5033141;28;20230;-76
2022/03/24 06:00:28;;;;;;;29.33;15.03;;;;;;;3.93;66.50;97201.00;5029093;28;20206;-77
2022/03/24 06:02:55;;;;;;;6.97;3.70;;;;;;;3.97;66.58;97205.00;5056206;28;20209;-76
2022/03/24 06:05:25;;;;;;;4.23;2.47;;;;;;;4.01;65.90;97203.66;5037389;28;20203;-76
2022/03/24 06:07:52;;;;;;;5.53;3.17;;;;;;;4.09;64.59;97206.31;5041758;28;20230;-76
2022/03/24 06:10:19;;;;;;;7.00;3.20;;;;;;;4.04;64.83;97209.50;5034962;28;20619;-77
2022/03/24 06:12:46;;;;;;;9.10;4.60;;;;;;;3.99;65.26;97208.34;5037073;28;20194;-76
2022/03/24 06:15:14;;;;;;;12.30;4.20;;;;;;;3.93;66.22;97212.50;5049192;28;20211;-76
2022/03/24 06:17:41;;;;;;;5.53;3.13;;;;;;;3.97;65.61;97208.53;5036613;28;20214;-76
2022/03/24 06:20:09;;;;;;;10.20;3.13;;;;;;;3.99;64.35;97203.00;5039676;28;20214;-76
2022/03/24 06:22:43;;;;;;;7.13;3.40;;;;;;;4.02;65.94;97199.97;5039124;28;20202;-76
2022/03/24 06:25:10;;;;;;;5.50;3.00;;;;;;;3.99;65.29;97195.00;5039894;28;20329;-76
2022/03/24 06:27:37;;;;;;;4.83;2.77;;;;;;;4.03;65.41;97193.63;5049593;28;20222;-76
2022/03/24 06:30:06;;;;;;;7.20;3.60;;;;;;;4.08;65.88;97204.69;5040537;28;20217;-76
2022/03/24 06:32:33;;;;;;;9.97;3.93;;;;;;;3.96;66.57;97200.66;5039880;28;20218;-76
2022/03/24 06:35:01;;;;;;;7.03;3.87;;;;;;;3.90;66.91;97204.00;5033965;28;20235;-76
2022/03/24 06:37:28;;;;;;;9.67;3.93;;;;;;;3.87;67.28;97194.50;5039253;28;20225;-76
2022/03/24 06:39:57;;;;;;;6.40;3.43;;;;;;;3.96;66.77;97193.47;5031704;28;20225;-77
2022/03/24 06:42:31;;;;;;;6.30;3.87;;;;;;;3.99;67.31;97197.66;5035173;28;20222;-76
2022/03/24 06:44:58;;;;;;;9.37;3.40;;;;;;;4.02;67.40;97192.81;5047969;28;20308;-76
2022/03/24 06:47:25;;;;;;;5.70;2.90;;;;;;;4.13;67.39;97194.31;5036292;28;20209;-77
2022/03/24 06:49:52;;;;;;;4.33;2.40;;;;;;;4.19;66.54;97193.59;5053413;28;20218;-76
2022/03/24 06:52:19;;;;;;;6.63;3.23;;;;;;;4.36;68.85;97192.56;5038229;28;20219;-76
2022/03/24 06:54:46;;;;;;;7.57;4.43;;;;;;;4.50;66.68;97196.41;5036639;28;20293;-76
2022/03/24 06:57:15;;;;;;;11.10;5.03;;;;;;;4.29;66.08;97207.63;5027774;28;20202;-76
2022/03/24 06:59:42;;;;;;;8.73;4.17;;;;;;;4.19;66.58;97198.97;5037280;28;20237;-76
2022/03/24 07:02:09;;;;;;;7.63;4.13;;;;;;;4.06;67.60;97199.50;5042663;28;20212;-76
2022/03/24 07:04:36;;;;;;;11.47;4.27;;;;;;;3.92;68.07;97207.34;5040123;28;20209;-76
2022/03/24 07:07:04;;;;;;;12.67;4.40;;;;;;;3.87;68.81;97204.34;5037096;28;20427;-75
2022/03/24 07:09:31;;;;;;;8.87;4.27;;;;;;;3.79;69.57;97202.50;5040018;28;20252;-76
2022/03/24 07:11:58;;;;;;;7.23;4.10;;;;;;;3.86;70.04;97203.50;5040496;28;20198;-76
2022/03/24 07:14:28;;;;;;;6.77;4.50;;;;;;;3.89;69.74;97207.69;5038371;28;20241;-76
2022/03/24 07:16:55;;;;;;;9.57;4.23;;;;;;;3.92;69.58;97210.00;5036768;28;20207;-76
2022/03/24 07:19:22;;;;;;;9.40;4.20;;;;;;;3.95;70.06;97212.34;5032521;28;20238;-76
2022/03/24 07:21:49;;;;;;;9.13;4.70;;;;;;;3.99;70.40;97216.38;5041138;28;20316;-76
2022/03/24 07:24:16;;;;;;;7.77;4.00;;;;;;;3.97;69.92;97218.38;5055879;28;20268;-76
2022/03/24 07:26:44;;;;;;;7.53;3.30;;;;;;;4.02;69.90;97214.19;5036892;28;20216;-76
2022/03/24 07:29:11;;;;;;;7.10;4.33;;;;;;;4.09;70.20;97225.03;5036646;28;20236;-76
2022/03/24 07:31:41;;;;;;;7.53;3.47;;;;;;;4.07;70.57;97217.19;5039183;28;20306;-76
2022/03/24 07:34:09;;;;;;;6.33;3.07;;;;;;;4.05;69.97;97218.38;5042424;28;20279;-76
2022/03/24 07:36:36;;;;;;;8.90;3.27;;;;;;;4.09;70.51;97222.34;5054444;28;20203;-76
2022/03/24 07:39:03;;;;;;;9.27;4.40;;;;;;;4.12;70.06;97224.69;5030781;28;20253;-76
2022/03/24 07:41:32;;;;;;;8.27;4.57;;;;;;;4.13;70.07;97221.03;5058523;28;20202;-76
2022/03/24 07:44:00;;;;;;;12.03;5.17;;;;;;;4.11;69.86;97231.03;5041324;28;20253;-76
2022/03/24 07:46:27;;;;;;;16.20;5.33;;;;;;;4.11;69.87;97231.88;5058110;28;20214;-76
2022/03/24 07:48:55;;;;;;;9.40;4.33;;;;;;;4.18;69.78;97226.69;5041420;28;20279;-76
2022/03/24 07:51:22;;;;;;;9.23;4.87;;;;;;;4.23;70.19;97232.38;5045610;28;20206;-76
2022/03/24 07:53:59;;;;;;;10.90;5.40;;;;;;;4.25;69.80;97237.56;5035745;28;20210;-76
2022/03/24 07:56:30;;;;;;;7.60;4.53;;;;;;;4.20;70.40;97238.06;5045931;28;20583;-76
2022/03/24 07:58:59;;;;;;;12.93;4.50;;;;;;;4.23;70.83;97235.06;5031067;28;20247;-76
2022/03/24 08:01:28;;;;;;;16.37;5.30;;;;;;;4.22;70.93;97235.22;5053939;28;20210;-76
2022/03/24 08:03:59;;;;;;;7.53;3.90;;;;;;;4.24;70.08;97234.06;5039338;28;20297;-76
2022/03/24 08:06:26;;;;;;;7.47;4.50;;;;;;;4.28;69.00;97227.34;5036848;28;20203;-76
2022/03/24 08:08:53;;;;;;;12.77;4.67;;;;;;;4.33;68.80;97229.53;5040254;28;20213;-76
2022/03/24 08:11:22;;;;;;;7.63;3.23;;;;;;;4.35;68.77;97225.66;5039522;28;20206;-76
2022/03/24 08:13:52;;;;;;;5.37;2.73;;;;;;;4.39;68.94;97232.34;5042353;28;20199;-76
2022/03/24 08:16:19;;;;;;;3.80;2.60;;;;;;;4.48;67.87;97230.50;5057811;28;20233;-76
2022/03/24 08:18:46;;;;;;;5.47;2.90;;;;;;;4.60;65.41;97220.25;5037489;28;20239;-76
2022/03/24 08:21:14;;;;;;;4.90;2.87;;;;;;;4.74;63.78;97216.88;5038781;28;20252;-76
2022/03/24 08:23:41;;;;;;;5.93;2.33;;;;;;;5.09;62.93;97226.28;5039994;28;20229;-76
2022/03/24 08:26:09;;;;;;;6.53;2.70;;;;;;;5.55;61.86;97213.78;5048153;28;20266;-76
2022/03/24 08:28:36;;;;;;;4.27;2.37;;;;;;;6.05;59.40;97211.41;5044339;28;20205;-76
2022/03/24 08:31:03;;;;;;;6.07;2.27;;;;;;;6.51;57.82;97219.34;5029525;28;20246;-76
2022/03/24 08:33:30;;;;;;;3.40;2.10;;;;;;;6.87;56.73;97207.91;5035730;28;20202;-76
2022/03/24 08:35:58;;;;;;;5.37;2.13;;;;;;;7.08;55.49;97202.59;5043069;28;20244;-76
2022/03/24 08:38:26;;;;;;;2.80;1.97;;;;;;;7.33;55.29;97203.91;5046608;28;20229;-76
2022/03/24 08:40:53;;;;;;;2.63;2.30;;;;;;;7.75;53.22;97215.75;5031671;28;20210;-76
2022/03/24 08:43:20;;;;;;;1.97;1.77;;;;;;;8.02;52.32;97203.38;5038945;28;20199;-77
2022/03/24 08:45:47;;;;;;;3.50;2.30;;;;;;;8.28;50.72;97206.31;5036844;28;20217;-77
2022/03/24 08:48:15;;;;;;;2.00;1.80;;;;;;;8.52;48.84;97211.28;5033007;28;20203;-76
2022/03/24 08:50:42;;;;;;;2.80;2.17;;;;;;;8.91;48.02;97208.03;5054376;28;20212;-77
2022/03/24 08:53:10;;;;;;;3.90;2.10;;;;;;;9.29;45.38;97199.47;5030015;28;20207;-76
2022/03/24 08:55:39;;;;;;;1.97;1.70;;;;;;;9.68;44.27;97206.88;5032607;28;20207;-77
2022/03/24 08:58:07;;;;;;;7.83;2.40;;;;;;;10.02;42.60;97211.31;5037420;28;20230;-77
2022/03/24 09:00:35;;;;;;;3.43;2.23;;;;;;;10.28;41.75;97208.66;5034763;28;20206;-77
2022/03/24 09:03:03;;;;;;;4.33;3.00;;;;;;;10.60;41.18;97204.28;5046384;28;20217;-77
2022/03/24 09:05:31;;;;;;;5.67;2.70;;;;;;;10.84;39.94;97205.47;5048206;28;20191;-76
2022/03/24 09:07:58;;;;;;;6.63;3.00;;;;;;;11.08;39.62;97212.91;5032282;28;20206;-77
2022/03/24 09:10:25;;;;;;;5.27;2.83;;;;;;;11.42;39.61;97210.91;5033238;28;20264;-77
2022/03/24 09:12:54;;;;;;;3.97;2.70;;;;;;;11.13;37.96;97215.81;5034945;28;20262;-77
2022/03/24 09:15:21;;;;;;;4.50;2.80;;;;;;;11.33;38.22;97205.75;5040118;28;20214;-77
2022/03/24 09:17:49;;;;;;;5.60;2.40;;;;;;;11.59;36.36;97209.38;5039866;28;20210;-77
2022/03/24 09:20:18;;;;;;;2.33;2.10;;;;;;;11.83;35.12;97208.66;5062432;28;20206;-77
2022/03/24 09:22:48;;;;;;;3.43;2.73;;;;;;;11.98;37.16;97213.78;5031263;28;20210;-77
2022/03/24 09:25:16;;;;;;;4.43;2.83;;;;;;;11.95;37.98;97204.22;5028563;28;20217;-77
2022/03/24 09:27:44;;;;;;;6.90;3.30;;;;;;;12.12;37.75;97199.94;5045993;28;20280;-77
2022/03/24 09:30:15;;;;;;;8.07;4.13;;;;;;;12.39;38.61;97208.69;5041373;28;20215;-77
2022/03/24 09:32:45;;;;;;;5.03;3.10;;;;;;;12.28;37.30;97197.72;5055060;28;20221;-77
2022/03/24 09:35:13;;;;;;;5.73;2.77;;;;;;;12.39;38.72;97200.56;5031663;28;20234;-77
2022/03/24 09:37:41;;;;;;;5.17;3.33;;;;;;;12.67;37.25;97202.84;5036837;28;20213;-77
2022/03/24 09:40:10;;;;;;;5.83;3.50;;;;;;;12.84;36.96;97203.88;5028308;28;20222;-77
2022/03/24 09:42:38;;;;;;;5.60;2.83;;;;;;;13.09;35.57;97189.47;5038959;28;20214;-77
2022/03/24 09:45:07;;;;;;;6.57;2.70;;;;;;;13.03;35.87;97193.91;5053413;28;20221;-77
2022/03/24 09:47:36;;;;;;;5.20;2.90;;;;;;;13.30;37.02;97189.03;5039108;28;20877;-78
2022/03/24 09:50:04;;;;;;;6.40;3.10;;;;;;;13.68;35.17;97194.19;5051670;28;20211;-77
2022/03/24 09:52:31;;;;;;;4.80;2.97;;;;;;;13.81;34.50;97195.91;5038765;28;20216;-77
2022/03/24 09:54:58;;;;;;;5.20;3.33;;;;;;;13.88;34.84;97183.06;5029606;28;20235;-78
2022/03/24 09:57:26;;;;;;;3.67;2.70;;;;;;;14.09;34.32;97195.28;5033511;28;20256;-78
2022/03/24 09:59:53;;;;;;;4.53;3.30;;;;;;;14.11;33.50;97199.44;5041728;28;20233;-77
2022/03/24 10:02:20;;;;;;;3.50;2.90;;;;;;;14.17;32.79;97184.94;5044353;28;20205;-77
2022/03/24 10:04:51;;;;;;;6.83;3.30;;;;;;;14.20;34.04;97187.19;5010904;28;20238;-77
2022/03/24 10:07:20;;;;;;;5.87;3.13;;;;;;;14.40;33.98;97186.88;5037192;28;20210;-77
2022/03/24 10:09:49;;;;;;;4.77;3.07;;;;;;;14.71;33.43;97188.47;5036387;28;20239;-77
2022/03/24 10:12:22;;;;;;;5.23;3.07;;;;;;;14.88;32.94;97183.16;5031188;28;20433;-76
2022/03/24 10:15:01;;;;;;;7.00;3.40;;;;;;;14.44;34.09;97181.81;5044941;28;20211;-76
2022/03/24 10:17:28;;;;;;;5.67;3.40;;;;;;;14.31;35.26;97177.38;5041362;28;20562;-76
2022/03/24 10:20:02;;;;;;;4.20;3.27;;;;;;;14.59;33.91;97169.44;5040573;28;20221;-77
2022/03/24 10:22:30;;;;;;;10.30;4.27;;;;;;;14.69;33.16;97175.09;5036119;28;20206;-77
2022/03/24 10:24:57;;;;;;;7.07;3.87;;;;;;;14.79;32.65;97171.81;5041253;28;20245;-77
2022/03/24 10:27:26;;;;;;;4.97;3.57;;;;;;;14.96;32.48;97175.47;5043197;28;20313;-77
2022/03/24 10:29:55;;;;;;;5.03;3.47;;;;;;;15.15;32.06;97168.78;5056354;28;20218;-77
2022/03/24 10:32:27;;;;;;;7.27;3.83;;;;;;;15.14;31.51;97166.34;5043209;28;20210;-77
2022/03/24 10:34:58;;;;;;;5.90;3.30;;;;;;;15.20;31.35;97161.81;5033227;28;20279;-77
2022/03/24 10:37:28;;;;;;;5.57;3.53;;;;;;;15.31;30.44;97158.25;5045944;28;20202;-77
2022/03/24 10:39:58;;;;;;;5.13;3.50;;;;;;;15.52;31.34;97157.59;5053654;28;20244;-77
2022/03/24 10:42:28;;;;;;;5.03;3.43;;;;;;;15.26;32.07;97153.50;5053503;28;20241;-77
2022/03/24 10:45:08;;;;;;;6.40;3.47;;;;;;;15.24;31.40;97146.66;5028691;28;20234;-77
2022/03/24 10:47:40;;;;;;;5.17;3.20;;;;;;;15.68;29.52;97154.13;5034654;28;20232;-77
2022/03/24 10:50:30;;;;;;;6.33;3.60;;;;;;;15.71;29.98;97145.47;5037940;28;20206;-77
2022/03/24 10:53:05;;;;;;;5.30;3.60;;;;;;;15.86;28.54;97153.94;5028627;28;20230;-77
2022/03/24 10:55:55;;;;;;;5.90;3.87;;;;;;;16.04;28.92;97155.63;5037711;28;20217;-77
2022/03/24 10:58:31;;;;;;;7.93;4.00;;;;;;;16.27;29.23;97149.19;5029961;28;20215;-77
2022/03/24 11:01:01;;;;;;;6.13;4.17;;;;;;;16.13;29.37;97145.16;5043969;28;20256;-76
2022/03/24 11:03:28;;;;;;;8.37;4.77;;;;;;;16.37;28.73;97141.19;5045440;28;20323;-77
2022/03/24 11:06:06;;;;;;;6.70;4.57;;;;;;;16.47;28.01;97137.81;5034607;28;20233;-77
2022/03/24 11:08:35;;;;;;;9.10;4.50;;;;;;;16.60;27.78;97140.19;5042582;28;20202;-76
2022/03/24 11:11:07;;;;;;;5.93;4.23;;;;;;;16.72;28.80;97131.94;5049777;28;20206;-77
2022/03/24 11:13:45;;;;;;;6.83;4.70;;;;;;;16.71;27.99;97124.84;5037019;28;20206;-76
2022/03/24 11:16:13;;;;;;;6.57;5.03;;;;;;;16.60;27.52;97124.66;5037545;28;20212;-76
2022/03/24 11:18:41;;;;;;;6.20;4.70;;;;;;;16.75;26.97;97124.09;5048629;28;20203;-76
2022/03/24 11:21:13;;;;;;;6.70;5.03;;;;;;;16.85;27.96;97126.13;5040225;28;20207;-76
2022/03/24 11:23:41;;;;;;;7.23;4.77;;;;;;;17.10;28.36;97115.56;5036181;28;20277;-76
2022/03/24 11:26:11;;;;;;;8.43;5.40;;;;;;;17.39;27.74;97118.94;5042704;28;20207;-77
2022/03/24 11:28:39;;;;;;;9.20;5.33;;;;;;;17.52;27.25;97109.56;5043790;28;20218;-77
2022/03/24 11:31:11;;;;;;;9.47;8.00;;;;;;;17.49;27.56;97110.06;5048156;28;20198;-77
2022/03/24 11:33:40;;;;;;;10.13;6.43;;;;;;;17.58;27.50;97100.31;5036643;28;20233;-79
2022/03/24 11:36:09;;;;;;;7.73;5.77;;;;;;;17.66;27.63;97102.63;5046950;28;20214;-80
2022/03/24 11:38:38;;;;;;;8.93;5.90;;;;;;;17.73;28.21;97098.59;5063177;28;20210;-80
2022/03/24 11:41:11;;;;;;;8.30;6.40;;;;;;;17.69;27.30;97089.25;5042039;28;20203;-80
2022/03/24 11:43:43;;;;;;;8.03;6.37;;;;;;;17.75;28.64;97084.69;5042133;28;20216;-80
2022/03/24 11:46:12;;;;;;;9.33;6.23;;;;;;;17.71;27.45;97086.28;5046217;28;20194;-80